createdAt,value
2018-12-21T00:00:45.046Z,-145.10
2018-12-21T00:03:15.164Z,-145.10
2018-12-21T00:05:45.373Z,-145.10
2018-12-21T00:08:15.785Z,-145.10
2018-12-21T00:10:46.208Z,-145.10
2018-12-21T00:13:16.544Z,-145.10
2018-12-21T00:15:46.994Z,-145.10
2018-12-21T00:18:17.259Z,-145.10
2018-12-21T00:20:47.322Z,-145.10
2018-12-21T00:23:17.602Z,-145.10
2018-12-21T00:25:47.773Z,-145.10
2018-12-21T00:28:17.977Z,-145.10
2018-12-21T00:30:46.707Z,-145.10
2018-12-21T00:33:22.854Z,-145.10
2018-12-21T00:35:58.652Z,-145.10
2018-12-21T00:38:33.637Z,-145.10
2018-12-21T00:41:09.271Z,-145.10
2018-12-21T00:43:44.512Z,-145.10
2018-12-21T00:46:24.418Z,-145.10
2018-12-21T00:48:54.863Z,-145.10
2018-12-21T00:51:30.204Z,-145.10
2018-12-21T00:53:57.311Z,-145.10
2018-12-21T00:56:27.394Z,-145.10
2018-12-21T00:58:57.606Z,-145.10
2018-12-21T01:01:29.784Z,-145.10
2018-12-21T01:03:59.789Z,-145.10
2018-12-21T01:06:30.050Z,-145.10
2018-12-21T01:09:00.826Z,-145.10
2018-12-21T01:11:31.115Z,-145.10
2018-12-21T01:14:01.298Z,-145.10
2018-12-21T01:16:32.136Z,-145.10
2018-12-21T01:19:02.389Z,-145.10
2018-12-21T01:21:38.759Z,-145.10
2018-12-21T01:24:05.858Z,-145.10
2018-12-21T01:26:36.215Z,-145.10
2018-12-21T01:29:06.686Z,-145.10
2018-12-21T01:31:37.003Z,-145.10
2018-12-21T01:34:07.254Z,-145.10
2018-12-21T01:36:37.507Z,-145.10
2018-12-21T01:39:08.587Z,-145.10
2018-12-21T01:41:38.818Z,-145.10
2018-12-21T01:44:09.219Z,-145.10
2018-12-21T01:46:39.249Z,-145.10
2018-12-21T01:49:09.341Z,-145.10
2018-12-21T01:51:46.903Z,-145.10
2018-12-21T01:54:11.677Z,-145.10
2018-12-21T01:56:41.894Z,-145.10
2018-12-21T01:59:12.094Z,-145.10
2018-12-21T02:01:42.398Z,-145.10
2018-12-21T02:04:12.483Z,-145.10
2018-12-21T02:06:42.574Z,-145.10
2018-12-21T02:09:12.796Z,-145.10
2018-12-21T02:11:42.828Z,-145.10
2018-12-21T02:14:13.059Z,-145.10
2018-12-21T02:16:44.222Z,-145.10
2018-12-21T02:19:14.583Z,-145.10
2018-12-21T02:21:44.521Z,-145.10
2018-12-21T02:24:14.703Z,-145.10
2018-12-21T02:26:45.161Z,-145.10
2018-12-21T02:29:15.838Z,-145.10
2018-12-21T02:31:46.839Z,-145.10
2018-12-21T02:34:17.083Z,-145.10
2018-12-21T02:36:47.364Z,-145.10
2018-12-21T02:39:18.141Z,-145.10
2018-12-21T02:41:48.553Z,-145.10
2018-12-21T02:44:19.170Z,-145.10
2018-12-21T02:46:49.241Z,-145.10
2018-12-21T02:49:19.272Z,-145.10
2018-12-21T02:51:49.556Z,-145.10
2018-12-21T02:54:19.854Z,-145.10
2018-12-21T02:56:49.937Z,-145.10
2018-12-21T02:59:20.016Z,-145.10
2018-12-21T03:01:51.409Z,-145.10
2018-12-21T03:04:21.415Z,-145.10
2018-12-21T03:06:51.661Z,-145.10
2018-12-21T03:09:21.806Z,-145.10
2018-12-21T03:11:51.826Z,-145.10
2018-12-21T03:14:22.990Z,-145.10
2018-12-21T03:16:53.209Z,-145.10
2018-12-21T03:19:23.575Z,-145.10
2018-12-21T03:21:53.665Z,-145.10
2018-12-21T03:24:24.466Z,-145.10
2018-12-21T03:26:54.710Z,-145.10
2018-12-21T03:29:25.070Z,-145.10
2018-12-21T03:31:55.340Z,-145.10
2018-12-21T03:34:26.473Z,-145.10
2018-12-21T03:36:57.733Z,-145.10
2018-12-21T03:39:28.707Z,-145.10
2018-12-21T03:41:58.859Z,-145.10
2018-12-21T03:44:29.329Z,-145.10
2018-12-21T03:46:59.346Z,-145.10
2018-12-21T03:49:30.373Z,-145.10
2018-12-21T03:52:00.404Z,-145.10
2018-12-21T03:54:30.525Z,-145.10
2018-12-21T03:57:00.701Z,-145.10
2018-12-21T03:59:30.864Z,-145.10
2018-12-21T04:02:00.762Z,-145.10
2018-12-21T04:04:31.184Z,-145.10
2018-12-21T04:07:01.549Z,-145.10
2018-12-21T04:09:32.083Z,-145.10
2018-12-21T04:12:01.914Z,-145.10
2018-12-21T04:14:32.136Z,-145.10
2018-12-21T04:17:02.338Z,-145.10
2018-12-21T04:19:32.679Z,-145.10
2018-12-21T04:22:02.886Z,-145.10
2018-12-21T04:24:32.999Z,-145.10
2018-12-21T04:27:03.336Z,-145.10
2018-12-21T04:29:34.719Z,-145.10
2018-12-21T04:32:04.836Z,-145.10
2018-12-21T04:34:35.867Z,-145.10
2018-12-21T04:37:05.841Z,-145.10
2018-12-21T04:39:35.868Z,-145.10
2018-12-21T04:42:06.142Z,-145.10
2018-12-21T04:44:36.253Z,-145.10
2018-12-21T04:47:06.341Z,-145.10
2018-12-21T04:49:36.356Z,-145.10
2018-12-21T04:52:07.985Z,-145.10
2018-12-21T04:54:38.094Z,-145.10
2018-12-21T04:57:08.273Z,-145.10
2018-12-21T04:59:38.471Z,-145.10
2018-12-21T05:02:08.512Z,-145.10
2018-12-21T05:04:39.675Z,-145.10
2018-12-21T05:07:12.477Z,-145.10
2018-12-21T05:09:42.838Z,-145.10
2018-12-21T05:12:12.978Z,-145.10
2018-12-21T05:14:43.388Z,-145.10
2018-12-21T05:17:14.568Z,-145.10
2018-12-21T05:19:44.759Z,-145.10
2018-12-21T05:22:14.942Z,-145.10
2018-12-21T05:24:46.058Z,-145.10
2018-12-21T05:27:16.151Z,-145.10
2018-12-21T05:29:46.312Z,-145.10
2018-12-21T05:32:17.388Z,-145.10
2018-12-21T05:34:49.864Z,-145.10
2018-12-21T05:37:19.962Z,-145.10
2018-12-21T05:39:49.973Z,-145.10
2018-12-21T05:42:22.161Z,-145.10
2018-12-21T05:44:52.531Z,-145.10
2018-12-21T05:47:23.991Z,-145.10
2018-12-21T05:49:55.239Z,-145.10
2018-12-21T05:52:25.453Z,-145.10
2018-12-21T05:54:55.592Z,-145.10
2018-12-21T05:57:25.685Z,-145.10
2018-12-21T05:59:55.594Z,-145.10
2018-12-21T06:02:26.011Z,-145.10
2018-12-21T06:04:56.091Z,-145.10
2018-12-21T06:07:26.239Z,-145.10
2018-12-21T06:09:56.490Z,-145.10
2018-12-21T06:12:26.756Z,-145.10
2018-12-21T06:14:57.070Z,-145.10
2018-12-21T06:17:27.143Z,-145.10
2018-12-21T06:19:58.318Z,-145.10
2018-12-21T06:22:28.641Z,-145.10
2018-12-21T06:24:58.839Z,-145.10
2018-12-21T06:27:29.115Z,-145.10
2018-12-21T06:29:59.558Z,-145.10
2018-12-21T06:32:29.807Z,-145.10
2018-12-21T06:34:59.889Z,-145.10
2018-12-21T06:37:31.238Z,-145.10
2018-12-21T06:40:01.530Z,-145.10
2018-12-21T06:42:31.599Z,-145.10
2018-12-21T06:45:02.957Z,-145.10
2018-12-21T06:47:34.009Z,-145.10
2018-12-21T06:50:04.246Z,-145.10
2018-12-21T06:52:35.447Z,-145.10
2018-12-21T06:55:06.199Z,-145.10
2018-12-21T06:57:36.858Z,-145.10
2018-12-21T07:00:08.677Z,-145.10
2018-12-21T07:02:38.794Z,-145.10
2018-12-21T07:05:09.073Z,-145.10
2018-12-21T07:07:40.340Z,-145.10
2018-12-21T07:10:12.692Z,-145.10
2018-12-21T07:12:42.863Z,-145.10
2018-12-21T07:15:13.367Z,-145.10
2018-12-21T07:17:43.272Z,-145.10
2018-12-21T07:20:13.276Z,-145.10
2018-12-21T07:22:44.477Z,-145.10
2018-12-21T07:25:14.915Z,-145.10
2018-12-21T07:27:45.160Z,-145.10
2018-12-21T07:30:15.384Z,-145.10
2018-12-21T07:32:46.491Z,-145.10
2018-12-21T07:35:18.185Z,-145.10
2018-12-21T07:37:49.011Z,-145.10
2018-12-21T07:40:19.417Z,-145.10
2018-12-21T07:42:50.931Z,-145.10
2018-12-21T07:45:22.693Z,-145.10
2018-12-21T07:47:52.787Z,-145.10
2018-12-21T07:50:22.911Z,-145.10
2018-12-21T07:52:53.428Z,-145.10
2018-12-21T07:55:24.018Z,-145.10
2018-12-21T07:57:54.155Z,-145.10
2018-12-21T08:00:24.319Z,-145.10
2018-12-21T08:02:54.415Z,-145.10
2018-12-21T08:05:25.275Z,-145.10
2018-12-21T08:07:55.674Z,-145.10
2018-12-21T08:10:26.797Z,-145.10
2018-12-21T08:12:56.977Z,-145.10
2018-12-21T08:15:27.236Z,-145.10
2018-12-21T08:17:57.302Z,-145.10
2018-12-21T08:20:27.613Z,-145.10
2018-12-21T08:22:58.927Z,-145.10
2018-12-21T08:25:29.318Z,-145.10
2018-12-21T08:27:59.384Z,-145.10
2018-12-21T08:30:31.311Z,-145.10
2018-12-21T08:33:01.556Z,-145.10
2018-12-21T08:35:31.610Z,-145.10
2018-12-21T08:38:01.919Z,-145.10
2018-12-21T08:40:32.182Z,-145.10
2018-12-21T08:43:02.460Z,-145.10
2018-12-21T08:45:32.633Z,-145.10
2018-12-21T08:48:03.512Z,-145.10
2018-12-21T08:50:33.616Z,-145.10
2018-12-21T08:53:04.723Z,-145.10
2018-12-21T08:55:35.659Z,-145.10
2018-12-21T08:58:05.901Z,-145.10
2018-12-21T09:00:37.141Z,-145.10
2018-12-21T09:03:07.426Z,-145.10
2018-12-21T09:05:37.903Z,-145.10
2018-12-21T09:08:08.161Z,-145.10
2018-12-21T09:10:38.314Z,-145.10
2018-12-21T09:13:08.570Z,-145.10
2018-12-21T09:15:39.118Z,-145.10
2018-12-21T09:18:09.742Z,-145.10
2018-12-21T09:20:40.044Z,-145.10
2018-12-21T09:23:10.170Z,-145.10
2018-12-21T09:25:40.297Z,-145.10
2018-12-21T09:28:10.788Z,-145.10
2018-12-21T09:30:41.099Z,-145.10
2018-12-21T09:33:12.348Z,-145.10
2018-12-21T09:35:42.852Z,-145.10
2018-12-21T09:38:12.979Z,-145.10
2018-12-21T09:40:44.018Z,-145.10
2018-12-21T09:43:14.974Z,-145.10
2018-12-21T09:45:46.238Z,-145.10
2018-12-21T09:48:16.409Z,-145.10
2018-12-21T09:50:46.506Z,-145.10
2018-12-21T09:53:16.917Z,-145.10
2018-12-21T09:55:46.900Z,-145.10
2018-12-21T09:58:16.893Z,-145.10
2018-12-21T10:00:46.935Z,-145.10
2018-12-21T10:03:16.987Z,-145.10
2018-12-21T10:05:47.099Z,-145.10
2018-12-21T10:08:17.169Z,-145.10
2018-12-21T10:10:47.518Z,-145.10
2018-12-21T10:13:17.956Z,-145.10
2018-12-21T10:15:47.827Z,-145.10
2018-12-21T10:18:17.719Z,-145.10
2018-12-21T10:20:48.113Z,-145.10
2018-12-21T10:23:18.515Z,-145.10
2018-12-21T10:25:48.550Z,-145.10
2018-12-21T10:28:18.786Z,-145.10
2018-12-21T10:30:48.800Z,-145.10
2018-12-21T10:33:18.594Z,-145.10
2018-12-21T10:35:48.505Z,-145.10
2018-12-21T10:38:18.475Z,-145.10
2018-12-21T10:40:48.516Z,-145.10
2018-12-21T10:43:19.238Z,-145.10
2018-12-21T10:45:49.411Z,-145.10
2018-12-21T10:48:20.222Z,-145.10
2018-12-21T10:50:54.143Z,-145.10
2018-12-21T10:53:24.230Z,-145.10
2018-12-21T10:55:54.404Z,-145.10
2018-12-21T10:58:24.525Z,-145.10
2018-12-21T11:00:55.830Z,-145.10
2018-12-21T11:03:27.028Z,-145.10
2018-12-21T11:05:57.126Z,-145.10
2018-12-21T11:08:27.496Z,-145.10
2018-12-21T11:10:57.914Z,-145.10
2018-12-21T11:13:28.158Z,-145.10
2018-12-21T11:15:58.531Z,-145.10
2018-12-21T11:18:28.877Z,-145.10
2018-12-21T11:20:59.986Z,-145.10
2018-12-21T11:23:30.161Z,-145.10
2018-12-21T11:26:01.292Z,-145.10
2018-12-21T11:28:31.382Z,-145.10
2018-12-21T11:31:02.173Z,-145.10
2018-12-21T11:33:32.361Z,-145.10
2018-12-21T11:36:02.746Z,-145.10
2018-12-21T11:38:32.851Z,-145.10
2018-12-21T11:41:03.062Z,-145.10
2018-12-21T11:43:35.271Z,-145.10
2018-12-21T11:46:06.683Z,-145.10
2018-12-21T11:48:36.966Z,-145.10
2018-12-21T11:51:07.077Z,-145.10
2018-12-21T11:53:37.304Z,-145.10
2018-12-21T11:56:08.609Z,-145.10
2018-12-21T11:58:38.936Z,-145.10
2018-12-21T12:01:09.105Z,-145.10
2018-12-21T12:03:44.950Z,-145.10
2018-12-21T12:06:15.106Z,-145.10
2018-12-21T12:08:45.819Z,-145.10
2018-12-21T12:11:15.890Z,-145.10
2018-12-21T12:13:46.061Z,-145.10
2018-12-21T12:16:15.956Z,-145.10
2018-12-21T12:18:46.209Z,-145.10
2018-12-21T12:21:16.577Z,-145.10
2018-12-21T12:23:47.192Z,-145.10
2018-12-21T12:26:17.772Z,-145.10
2018-12-21T12:28:47.928Z,-145.10
2018-12-21T12:31:22.252Z,-145.10
2018-12-21T12:33:52.277Z,-145.10
2018-12-21T12:36:22.385Z,-145.10
2018-12-21T12:38:52.764Z,-145.10
2018-12-21T12:41:23.902Z,-145.10
2018-12-21T12:43:54.593Z,-145.10
2018-12-21T12:46:24.986Z,-145.10
2018-12-21T12:48:55.220Z,-145.10
2018-12-21T12:51:25.881Z,-145.10
2018-12-21T12:53:56.779Z,-145.10
2018-12-21T12:56:31.796Z,-145.10
2018-12-21T12:59:01.873Z,-145.10
2018-12-21T13:01:33.782Z,-145.10
2018-12-21T13:04:08.165Z,-145.10
2018-12-21T13:06:38.580Z,-145.10
2018-12-21T13:09:09.715Z,-145.10
2018-12-21T13:11:40.343Z,-145.10
2018-12-21T13:14:10.785Z,-145.10
2018-12-21T13:16:41.856Z,-145.10
2018-12-21T13:19:11.955Z,-145.10
2018-12-21T13:21:47.191Z,-145.10
2018-12-21T13:24:17.974Z,-145.10
2018-12-21T13:26:49.059Z,-145.10
2018-12-21T13:29:20.416Z,-145.10
2018-12-21T13:31:51.875Z,-145.10
2018-12-21T13:34:23.271Z,-145.10
2018-12-21T13:36:55.644Z,-145.10
2018-12-21T13:39:25.994Z,-145.10
2018-12-21T13:41:57.749Z,-145.10
2018-12-21T13:44:27.795Z,-145.10
2018-12-21T13:46:58.579Z,-145.10
2018-12-21T13:49:29.146Z,-145.10
2018-12-21T13:51:59.428Z,-145.10
2018-12-21T13:54:29.643Z,-145.10
2018-12-21T13:57:01.671Z,-145.10
2018-12-21T13:59:39.339Z,-145.10
2018-12-21T14:02:10.174Z,-145.10
2018-12-21T14:04:40.913Z,-145.10
2018-12-21T14:07:14.105Z,-145.10
2018-12-21T14:09:44.883Z,-145.10
2018-12-21T14:12:15.994Z,-145.10
2018-12-21T14:14:46.250Z,-145.10
2018-12-21T14:17:16.485Z,-145.10
2018-12-21T14:19:46.989Z,-145.10
2018-12-21T14:22:18.439Z,-145.10
2018-12-21T14:24:50.065Z,-145.10
2018-12-21T14:27:20.727Z,-145.10
2018-12-21T14:29:51.843Z,-145.10
2018-12-21T14:32:25.423Z,-145.10
2018-12-21T14:34:55.924Z,-145.10
2018-12-21T14:37:26.760Z,-145.10
2018-12-21T14:39:58.323Z,-145.10
2018-12-21T14:42:28.552Z,-145.10
2018-12-21T14:45:00.504Z,-145.10
2018-12-21T14:47:31.601Z,-145.10
2018-12-21T14:50:02.404Z,-145.10
2018-12-21T14:52:33.691Z,-145.10
2018-12-21T14:55:05.150Z,-145.10
2018-12-21T14:57:35.487Z,-145.10
2018-12-21T15:00:07.762Z,-145.10
2018-12-21T15:02:37.640Z,-145.10
2018-12-21T15:05:11.444Z,-145.10
2018-12-21T15:07:41.342Z,-145.10
2018-12-21T15:10:11.832Z,-145.10
2018-12-21T15:12:41.725Z,-145.10
2018-12-21T15:15:11.535Z,-145.10
2018-12-21T15:17:41.513Z,-145.10
2018-12-21T15:20:12.249Z,-145.10
2018-12-21T15:22:42.113Z,-145.10
2018-12-21T15:25:12.184Z,-145.10
2018-12-21T15:27:42.166Z,-145.10
2018-12-21T15:30:13.045Z,-145.10
2018-12-21T15:32:43.040Z,-145.10
2018-12-21T15:35:13.358Z,-145.10
2018-12-21T15:37:43.540Z,-145.10
2018-12-21T15:40:13.617Z,-145.10
2018-12-21T15:42:43.740Z,-145.10
2018-12-21T15:45:14.128Z,-145.10
2018-12-21T15:47:44.294Z,-145.10
2018-12-21T15:50:14.472Z,-145.10
2018-12-21T15:52:44.531Z,-145.10
2018-12-21T15:55:14.293Z,-145.10
2018-12-21T15:57:44.922Z,-145.10
2018-12-21T16:00:16.855Z,-145.10
2018-12-21T16:02:50.433Z,-145.10
2018-12-21T16:05:20.739Z,-145.10
2018-12-21T16:07:51.668Z,-145.10
2018-12-21T16:10:22.691Z,-145.10
2018-12-21T16:12:52.634Z,-145.10
2018-12-21T16:15:22.774Z,-145.10
2018-12-21T16:17:52.688Z,-145.10
2018-12-21T16:20:22.900Z,-145.10
2018-12-21T16:22:53.568Z,-145.10
2018-12-21T16:25:23.817Z,-145.10
2018-12-21T16:27:53.682Z,-145.10
2018-12-21T16:30:23.756Z,-145.10
2018-12-21T16:32:53.513Z,-145.10
2018-12-21T16:35:23.661Z,-145.10
2018-12-21T16:37:53.610Z,-145.10
2018-12-21T16:40:23.840Z,-145.10
2018-12-21T16:42:54.471Z,-145.10
2018-12-21T16:45:24.796Z,-145.10
2018-12-21T16:47:55.080Z,-145.10
2018-12-21T16:50:25.231Z,-145.10
2018-12-21T16:52:56.944Z,-145.10
2018-12-21T16:55:27.478Z,-145.10
2018-12-21T16:57:57.866Z,-145.10
2018-12-21T17:00:29.166Z,-145.10
2018-12-21T17:02:59.601Z,-145.10
2018-12-21T17:05:29.900Z,-145.10
2018-12-21T17:08:00.005Z,-145.10
2018-12-21T17:10:30.503Z,-145.10
2018-12-21T17:13:00.790Z,-145.10
2018-12-21T17:15:30.963Z,-145.10
2018-12-21T17:18:01.187Z,-145.10
2018-12-21T17:20:31.522Z,-145.10
2018-12-21T17:23:01.908Z,-145.10
2018-12-21T17:25:32.424Z,-145.10
2018-12-21T17:28:02.567Z,-145.10
2018-12-21T17:30:33.585Z,-145.10
2018-12-21T17:33:03.851Z,-145.10
2018-12-21T17:35:34.178Z,-145.10
2018-12-21T17:38:04.433Z,-145.10
2018-12-21T17:40:34.777Z,-145.10
2018-12-21T17:43:04.634Z,-145.10
2018-12-21T17:45:35.601Z,-145.10
2018-12-21T17:48:05.716Z,-145.10
2018-12-21T17:50:35.625Z,-145.10
2018-12-21T17:53:06.307Z,-145.10
2018-12-21T17:55:36.417Z,-145.10
2018-12-21T17:58:07.862Z,-145.10
2018-12-21T18:00:38.730Z,-145.10
2018-12-21T18:03:11.028Z,-145.10
2018-12-21T18:05:41.381Z,-145.10
2018-12-21T18:08:12.054Z,-145.10
2018-12-21T18:10:42.169Z,-145.10
2018-12-21T18:13:12.440Z,-145.10
2018-12-21T18:15:42.694Z,-145.10
2018-12-21T18:18:14.823Z,-145.10
2018-12-21T18:20:44.709Z,-145.10
2018-12-21T18:23:15.784Z,-145.10
2018-12-21T18:25:46.212Z,-145.10
2018-12-21T18:28:22.432Z,-145.10
2018-12-21T18:30:55.979Z,-145.10
2018-12-21T18:33:27.033Z,-145.10
2018-12-21T18:35:57.317Z,-145.10
2018-12-21T18:38:29.468Z,-145.10
2018-12-21T18:41:00.721Z,-145.10
2018-12-21T18:43:31.090Z,-145.10
2018-12-21T18:46:01.579Z,-145.10
2018-12-21T18:48:31.757Z,-145.10
2018-12-21T18:51:01.684Z,-145.10
2018-12-21T18:53:31.809Z,-145.10
2018-12-21T18:56:02.473Z,-145.10
2018-12-21T18:58:33.682Z,-145.10
2018-12-21T19:01:03.917Z,-145.10
2018-12-21T19:03:34.097Z,-145.10
2018-12-21T19:06:04.888Z,-145.10
2018-12-21T19:08:35.021Z,-145.10
2018-12-21T19:11:05.182Z,-145.10
2018-12-21T19:13:35.288Z,-145.10
2018-12-21T19:16:06.619Z,-145.10
2018-12-21T19:18:37.704Z,-145.10
2018-12-21T19:21:07.943Z,-145.10
2018-12-21T19:23:38.131Z,-145.10
2018-12-21T19:26:08.972Z,-145.10
2018-12-21T19:28:38.861Z,-145.10
2018-12-21T19:31:11.813Z,-145.10
2018-12-21T19:33:42.196Z,-145.10
2018-12-21T19:36:13.386Z,-145.10
2018-12-21T19:38:43.789Z,-145.10
2018-12-21T19:41:14.003Z,-145.10
2018-12-21T19:43:44.657Z,-145.10
2018-12-21T19:46:15.765Z,-145.10
2018-12-21T19:48:45.853Z,-145.10
2018-12-21T19:51:16.860Z,-145.10
2018-12-21T19:53:48.856Z,-145.10
2018-12-21T19:56:39.312Z,-145.10
2018-12-21T19:59:09.633Z,-145.10
2018-12-21T20:01:39.800Z,-145.10
2018-12-21T20:04:09.926Z,-145.10
2018-12-21T20:06:40.192Z,-145.10
2018-12-21T20:09:11.441Z,-145.10
2018-12-21T20:11:41.559Z,-145.10
2018-12-21T20:14:12.878Z,-145.10
2018-12-21T20:16:43.389Z,-145.10
2018-12-21T20:19:13.620Z,-145.10
2018-12-21T20:21:43.820Z,-145.10
2018-12-21T20:24:15.124Z,-145.10
2018-12-21T20:26:49.457Z,-145.10
2018-12-21T20:29:20.016Z,-145.10
2018-12-21T20:31:50.139Z,-145.10
2018-12-21T20:34:21.584Z,-145.10
2018-12-21T20:36:52.003Z,-145.10
2018-12-21T20:39:26.610Z,-145.10
2018-12-21T20:41:57.701Z,-145.10
2018-12-21T20:44:28.641Z,-145.10
2018-12-21T20:47:02.513Z,-145.10
2018-12-21T20:49:32.886Z,-145.10
2018-12-21T20:52:03.107Z,-145.10
2018-12-21T20:54:34.232Z,-145.10
2018-12-21T20:57:06.755Z,-145.10
2018-12-21T20:59:36.900Z,-145.10
2018-12-21T21:02:07.124Z,-145.10
2018-12-21T21:04:38.445Z,-145.10
2018-12-21T21:07:09.654Z,-145.10
2018-12-21T21:09:41.060Z,-145.10
2018-12-21T21:12:12.004Z,-145.10
2018-12-21T21:14:42.485Z,-145.10
2018-12-21T21:17:12.653Z,-145.10
2018-12-21T21:19:43.953Z,-145.10
2018-12-21T21:22:14.042Z,-145.10
2018-12-21T21:24:45.801Z,-145.10
2018-12-21T21:35:01.913Z,14.71
2018-12-21T21:37:31.946Z,11.71
2018-12-21T21:40:02.107Z,9.18
2018-12-21T21:42:32.376Z,7.15
2018-12-21T21:45:02.756Z,6.18
2018-12-21T21:47:33.017Z,5.03
2018-12-21T21:50:03.334Z,4.35
2018-12-21T21:52:33.764Z,3.86
2018-12-21T21:55:03.618Z,3.57
2018-12-21T21:57:39.309Z,3.34
2018-12-21T22:00:07.142Z,3.03
2018-12-21T22:02:37.261Z,2.86
2018-12-21T22:05:08.379Z,2.78
2018-12-21T22:07:38.741Z,2.68
2018-12-21T22:10:10.926Z,2.63
2018-12-21T22:12:41.066Z,2.65
2018-12-21T22:15:13.060Z,2.63
2018-12-21T22:17:43.631Z,2.59
2018-12-21T22:20:13.915Z,2.51
2018-12-21T22:22:43.935Z,2.56
2018-12-21T22:25:13.924Z,2.53
2018-12-21T22:27:47.995Z,2.57
2018-12-21T22:30:16.392Z,2.66
2018-12-21T22:32:46.494Z,2.73
2018-12-21T22:35:17.145Z,2.75
2018-12-21T22:37:47.259Z,2.86
2018-12-21T22:40:17.200Z,2.93
2018-12-21T22:42:47.405Z,2.96
2018-12-21T22:45:19.950Z,3.05
2018-12-21T22:47:49.963Z,3.10
2018-12-21T22:50:19.927Z,3.10
2018-12-21T22:52:49.890Z,3.09
2018-12-21T22:55:21.729Z,3.16
2018-12-21T22:57:56.397Z,3.16
2018-12-21T23:00:28.748Z,3.09
2018-12-21T23:02:58.711Z,3.03
2018-12-21T23:05:29.341Z,3.02
2018-12-21T23:07:59.230Z,2.93
2018-12-21T23:10:29.337Z,2.90
2018-12-21T23:12:59.587Z,2.94
2018-12-21T23:15:29.817Z,2.96
2018-12-21T23:18:01.245Z,3.01
2018-12-21T23:20:31.107Z,3.04
2018-12-21T23:23:00.925Z,3.11
2018-12-21T23:25:31.177Z,3.10
2018-12-21T23:28:04.941Z,3.04
2018-12-21T23:30:33.451Z,2.93
2018-12-21T23:33:03.561Z,2.83
2018-12-21T23:35:33.241Z,2.77
2018-12-21T23:38:03.450Z,2.69
2018-12-21T23:40:34.308Z,2.59
2018-12-21T23:43:04.095Z,2.50
2018-12-21T23:45:33.834Z,2.38
2018-12-21T23:48:04.014Z,2.28
2018-12-21T23:50:34.071Z,2.22
2018-12-21T23:53:03.983Z,2.12
2018-12-21T23:55:33.769Z,2.12
2018-12-21T23:58:03.775Z,2.08
